Time;durP1;ratioP1;P1;durP2;ratioP2;P2;SDS_P1;SDS_P2;PMS_P1;PMS_P2;Temp;Humidity;BMP_temperature;BMP_pressure;BME280_temperature;BME280_humidity;BME280_pressure;Samples;Min_cycle;Max_cycle;Signal;HPM_P1;HPM_P2
2021/07/30 00:00:12;;;;;;;9.40;7.03;;;;;;;21.01;81.92;98927.92;1753163;82;21018;-68
2021/07/30 00:02:38;;;;;;;11.63;7.78;;;;;;;21.00;81.71;98923.58;1751492;82;21027;-68
2021/07/30 00:05:06;;;;;;;11.15;7.60;;;;;;;21.00;81.51;98921.39;1709405;83;21030;-68
2021/07/30 00:07:32;;;;;;;13.30;7.67;;;;;;;20.97;81.34;98922.92;1739649;82;21031;-68
2021/07/30 00:09:59;;;;;;;13.05;7.58;;;;;;;20.98;81.15;98922.31;1751062;82;21575;-68
2021/07/30 00:12:25;;;;;;;13.13;7.12;;;;;;;20.97;80.98;98924.30;1747332;82;21382;-68
2021/07/30 00:14:52;;;;;;;11.63;7.75;;;;;;;20.96;80.82;98922.69;1752065;82;21003;-68
2021/07/30 00:17:18;;;;;;;9.68;6.72;;;;;;;20.84;80.78;98922.20;1731313;82;21123;-68
2021/07/30 00:19:45;;;;;;;12.60;8.10;;;;;;;20.75;80.87;98923.56;1738969;82;21039;-68
2021/07/30 00:22:11;;;;;;;10.53;6.45;;;;;;;20.70;80.85;98916.91;1740717;82;21019;-69
2021/07/30 00:24:37;;;;;;;9.53;6.42;;;;;;;20.69;80.78;98912.56;1670609;85;22002;-69
2021/07/30 00:27:04;;;;;;;13.22;7.53;;;;;;;20.63;80.78;98912.59;1736502;82;21429;-69
2021/07/30 00:29:30;;;;;;;14.05;7.55;;;;;;;20.57;80.84;98902.97;1714111;82;21090;-69
2021/07/30 00:31:57;;;;;;;9.50;6.95;;;;;;;20.50;80.96;98911.09;1645398;86;21118;-68
2021/07/30 00:34:23;;;;;;;9.35;6.67;;;;;;;20.48;80.98;98905.09;1719381;82;21491;-69
2021/07/30 00:36:49;;;;;;;11.22;6.85;;;;;;;20.47;81.01;98910.42;1654566;86;21087;-68
2021/07/30 00:39:16;;;;;;;8.10;6.53;;;;;;;20.42;81.04;98906.53;1711937;82;21035;-69
2021/07/30 00:41:42;;;;;;;10.98;6.60;;;;;;;20.39;81.10;98908.05;1647698;86;21128;-68
2021/07/30 00:44:09;;;;;;;9.83;6.65;;;;;;;20.39;81.12;98899.76;1715497;82;21043;-68
2021/07/30 00:46:36;;;;;;;9.43;6.78;;;;;;;20.37;81.08;98894.38;1738872;82;21050;-68
2021/07/30 00:49:02;;;;;;;10.05;6.65;;;;;;;20.31;81.13;98890.48;1736641;82;21690;-68
2021/07/30 00:51:28;;;;;;;9.95;6.87;;;;;;;20.30;81.18;98895.78;1734807;82;21051;-68
2021/07/30 00:53:55;;;;;;;9.28;6.28;;;;;;;20.25;81.21;98893.84;1738721;82;20952;-68
2021/07/30 00:56:22;;;;;;;9.13;6.45;;;;;;;20.25;81.26;98886.93;1723436;82;21064;-68
2021/07/30 00:58:49;;;;;;;9.38;6.72;;;;;;;20.25;81.25;98885.55;1734813;82;20984;-68
2021/07/30 01:01:17;;;;;;;9.00;6.60;;;;;;;20.25;81.23;98885.55;1715064;82;21559;-68
2021/07/30 01:03:43;;;;;;;9.58;6.60;;;;;;;20.24;81.17;98882.55;1648915;86;21063;-68
2021/07/30 01:06:10;;;;;;;10.13;6.50;;;;;;;20.22;81.16;98887.07;1709810;82;21036;-69
2021/07/30 01:08:38;;;;;;;9.98;6.00;;;;;;;20.21;81.16;98884.08;1699100;84;21489;-68
2021/07/30 01:11:04;;;;;;;10.68;6.22;;;;;;;20.20;81.13;98885.23;1696330;84;21063;-68
2021/07/30 01:13:31;;;;;;;8.40;6.40;;;;;;;20.15;81.22;98886.89;1690761;84;21551;-68
2021/07/30 01:15:57;;;;;;;9.65;6.28;;;;;;;20.09;81.32;98892.43;1724935;82;21151;-68
2021/07/30 01:18:24;;;;;;;9.15;6.42;;;;;;;20.05;81.44;98886.00;1646068;86;21609;-68
2021/07/30 01:21:18;;;;;;;9.38;6.65;;;;;;;20.04;81.54;98889.95;1731423;82;21011;-68
2021/07/30 01:23:47;;;;;;;11.57;6.87;;;;;;;20.03;81.56;98894.43;1730514;82;20984;-68
2021/07/30 01:26:17;;;;;;;8.93;6.55;;;;;;;20.00;81.56;98895.14;1717434;82;21043;-68
2021/07/30 01:28:45;;;;;;;11.90;6.20;;;;;;;19.98;81.57;98901.61;1747874;82;21026;-67
2021/07/30 01:31:11;;;;;;;10.93;6.15;;;;;;;19.94;81.61;98906.23;1685477;85;21513;-68
2021/07/30 01:33:37;;;;;;;10.58;6.58;;;;;;;19.91;81.63;98904.19;1734144;82;21034;-69
2021/07/30 01:36:04;;;;;;;11.25;6.37;;;;;;;19.92;81.65;98905.20;1746364;82;21714;-68
2021/07/30 01:38:31;;;;;;;8.95;6.05;;;;;;;19.93;81.61;98906.00;1752364;82;20964;-69
2021/07/30 01:41:08;;;;;;;10.23;7.10;;;;;;;19.93;81.53;98897.72;1751098;82;21083;-68
2021/07/30 01:43:26;;;;;;;7.22;6.17;;;;;;;19.95;81.45;98903.67;1749231;82;21004;-68
2021/07/30 01:45:52;;;;;;;9.28;6.55;;;;;;;19.95;81.38;98898.95;1733634;82;21098;-68
2021/07/30 01:48:19;;;;;;;9.75;6.87;;;;;;;19.93;81.32;98897.14;1753487;82;21564;-68
2021/07/30 01:50:45;;;;;;;11.20;6.70;;;;;;;19.92;81.27;98904.39;1748500;82;21037;-68
2021/07/30 01:53:12;;;;;;;8.83;6.58;;;;;;;19.89;81.29;98899.00;1753196;82;21023;-68
2021/07/30 01:55:39;;;;;;;11.83;7.03;;;;;;;19.90;81.23;98897.85;1747021;82;21451;-68
2021/07/30 01:58:06;;;;;;;9.55;6.78;;;;;;;19.91;81.15;98899.44;1753213;82;21054;-68
2021/07/30 02:00:32;;;;;;;10.53;6.67;;;;;;;19.91;81.03;98899.44;1735078;82;20995;-68
2021/07/30 02:02:58;;;;;;;11.57;7.78;;;;;;;19.92;80.96;98898.29;1750367;82;20996;-68
2021/07/30 02:05:25;;;;;;;12.05;8.63;;;;;;;19.92;80.91;98901.63;1751142;82;20991;-69
2021/07/30 02:07:51;;;;;;;11.68;9.70;;;;;;;19.89;80.91;98905.91;1725831;82;21533;-68
2021/07/30 02:10:18;;;;;;;10.95;8.48;;;;;;;19.83;81.00;98908.70;1726122;82;21023;-68
2021/07/30 02:15:31;;;;;;;12.00;8.10;;;;;;;19.78;80.80;98918.04;1724285;82;20999;-68
2021/07/30 02:17:58;;;;;;;11.12;8.05;;;;;;;19.77;80.79;98910.90;1706901;82;21055;-68
2021/07/30 02:20:24;;;;;;;11.03;7.47;;;;;;;19.74;80.77;98918.52;1711588;82;21115;-68
2021/07/30 02:22:51;;;;;;;10.55;7.83;;;;;;;19.74;80.76;98917.70;1733571;82;21081;-68
2021/07/30 02:25:17;;;;;;;12.05;7.87;;;;;;;19.71;80.68;98917.84;1726310;82;21054;-68
2021/07/30 02:27:44;;;;;;;10.48;7.42;;;;;;;19.71;80.68;98923.94;1647784;86;21058;-68
2021/07/30 02:30:11;;;;;;;12.93;8.28;;;;;;;19.69;80.71;98924.88;1730960;82;21549;-68
2021/07/30 02:32:37;;;;;;;8.75;7.85;;;;;;;19.69;80.72;98924.88;1717216;82;21055;-68
2021/07/30 02:35:05;;;;;;;13.13;9.18;;;;;;;19.66;80.80;98928.34;1650138;85;21047;-69
2021/07/30 02:37:31;;;;;;;10.95;8.23;;;;;;;19.61;80.93;98927.20;1720944;82;21072;-68
2021/07/30 02:39:58;;;;;;;10.15;8.00;;;;;;;19.58;80.92;98930.09;1729970;82;21015;-69
2021/07/30 02:42:24;;;;;;;11.48;8.20;;;;;;;19.60;80.79;98933.87;1749318;82;21079;-68
2021/07/30 02:44:51;;;;;;;11.63;8.43;;;;;;;19.60;80.73;98931.11;1730203;82;21450;-68
2021/07/30 02:47:18;;;;;;;10.80;8.10;;;;;;;19.58;80.72;98935.61;1655853;86;21549;-68
2021/07/30 02:49:44;;;;;;;11.65;7.87;;;;;;;19.57;80.65;98939.52;1720407;82;21014;-68
2021/07/30 02:52:10;;;;;;;9.55;8.00;;;;;;;19.57;80.62;98946.99;1729719;82;21016;-68
2021/07/30 02:54:37;;;;;;;10.55;8.10;;;;;;;19.56;80.61;98944.80;1741281;82;21466;-68
2021/07/30 02:57:03;;;;;;;12.15;8.25;;;;;;;19.54;80.63;98951.84;1620189;87;21046;-68
2021/07/30 02:59:33;;;;;;;12.07;8.08;;;;;;;19.48;80.73;98950.48;1693653;83;20959;-68
2021/07/30 03:01:58;;;;;;;9.95;8.10;;;;;;;19.47;80.75;98951.63;1740360;82;21086;-68
2021/07/30 03:04:24;;;;;;;10.78;8.03;;;;;;;19.47;80.67;98951.63;1719921;82;20975;-68
2021/07/30 03:06:52;;;;;;;8.70;7.78;;;;;;;19.45;80.67;98966.36;1724521;82;21570;-68
2021/07/30 03:09:19;;;;;;;15.58;7.97;;;;;;;19.43;80.76;98966.70;1692370;84;21026;-68
2021/07/30 03:11:47;;;;;;;9.78;7.90;;;;;;;19.43;80.80;98967.27;1698696;84;21094;-68
2021/07/30 03:14:14;;;;;;;9.63;7.75;;;;;;;19.41;80.83;98962.13;1673076;86;21102;-68
2021/07/30 03:16:42;;;;;;;11.30;8.85;;;;;;;19.41;80.90;98965.42;1684940;85;21573;-68
2021/07/30 03:19:09;;;;;;;11.97;8.48;;;;;;;19.41;81.03;98969.02;1737982;82;21351;-68
2021/07/30 03:21:36;;;;;;;9.90;8.65;;;;;;;19.41;81.09;98971.78;1663543;85;21090;-68
2021/07/30 03:24:03;;;;;;;11.55;8.63;;;;;;;19.42;81.15;98978.08;1739800;82;21043;-68
2021/07/30 03:26:32;;;;;;;11.55;9.03;;;;;;;19.45;81.30;98980.95;1729734;82;21122;-68
2021/07/30 03:28:59;;;;;;;13.98;9.30;;;;;;;19.50;81.41;98980.72;1736487;82;21019;-68
2021/07/30 03:31:25;;;;;;;9.95;8.35;;;;;;;19.57;81.56;98982.88;1741751;82;21039;-68
2021/07/30 03:33:52;;;;;;;11.18;8.50;;;;;;;19.64;81.59;98985.85;1750401;82;21039;-68
2021/07/30 03:36:19;;;;;;;13.18;8.45;;;;;;;19.71;81.56;98991.02;1721660;82;21102;-69
2021/07/30 03:38:46;;;;;;;13.18;8.53;;;;;;;19.78;81.48;98993.17;1738370;82;21015;-68
2021/07/30 03:41:13;;;;;;;10.68;8.63;;;;;;;19.84;81.42;98998.09;1746349;82;21093;-68
2021/07/30 03:43:39;;;;;;;10.85;8.20;;;;;;;19.94;81.40;99002.34;1752792;82;21011;-68
2021/07/30 03:46:06;;;;;;;11.00;8.38;;;;;;;20.06;81.56;99006.41;1748197;82;21126;-68
2021/07/30 03:48:32;;;;;;;9.88;8.38;;;;;;;20.24;81.73;99017.97;1737990;82;21537;-68
2021/07/30 03:50:59;;;;;;;12.15;7.92;;;;;;;20.46;82.03;99006.94;1663748;85;21070;-68
2021/07/30 03:53:25;;;;;;;10.58;8.25;;;;;;;20.77;81.98;99015.27;1733234;82;21019;-68
2021/07/30 03:55:52;;;;;;;13.85;8.33;;;;;;;21.12;81.38;99017.56;1740410;82;21075;-68
2021/07/30 03:58:18;;;;;;;9.23;7.85;;;;;;;21.41;80.45;99018.23;1729627;82;20979;-68
2021/07/30 04:00:44;;;;;;;13.68;8.13;;;;;;;21.69;79.85;99024.41;1736338;82;20963;-68
2021/07/30 04:03:11;;;;;;;10.70;7.67;;;;;;;21.96;78.83;99030.39;1737804;82;21026;-68
2021/07/30 04:05:38;;;;;;;9.30;7.33;;;;;;;22.29;78.15;99036.78;1746650;82;21414;-69
2021/07/30 04:08:05;;;;;;;9.10;7.60;;;;;;;22.68;77.00;99036.98;1730866;82;21026;-68
2021/07/30 04:10:32;;;;;;;13.30;7.42;;;;;;;22.99;75.60;99026.83;1681602;82;21027;-69
2021/07/30 04:13:00;;;;;;;10.95;7.92;;;;;;;23.27;74.38;99026.70;1723259;83;21035;-69
2021/07/30 04:15:27;;;;;;;9.93;8.25;;;;;;;23.51;73.08;99024.11;1726251;82;21033;-68
2021/07/30 04:17:53;;;;;;;11.73;8.33;;;;;;;23.71;72.02;99030.34;1740074;82;21086;-68
2021/07/30 04:20:20;;;;;;;11.22;7.70;;;;;;;23.83;70.67;99030.12;1741308;82;20975;-69
2021/07/30 04:22:46;;;;;;;8.45;7.65;;;;;;;24.00;70.75;99030.12;1752840;82;21102;-68
2021/07/30 04:25:13;;;;;;;8.60;7.67;;;;;;;24.36;69.86;99032.20;1737869;82;20979;-68
2021/07/30 04:27:39;;;;;;;11.03;7.70;;;;;;;24.43;68.16;99035.06;1730890;81;21055;-68
2021/07/30 04:30:08;;;;;;;10.30;8.78;;;;;;;24.40;67.95;99041.39;1731062;82;21457;-67
2021/07/30 04:32:34;;;;;;;11.08;8.10;;;;;;;24.33;67.29;99040.50;1695722;82;21040;-67
2021/07/30 04:35:01;;;;;;;12.03;8.23;;;;;;;24.18;67.43;99030.60;1722532;82;21030;-67
2021/07/30 04:37:27;;;;;;;10.20;7.97;;;;;;;24.18;67.43;99030.60;1717745;82;21154;-68
2021/07/30 04:39:53;;;;;;;8.63;7.72;;;;;;;24.18;67.65;99040.33;1716736;82;21932;-68
2021/07/30 04:42:20;;;;;;;9.98;7.35;;;;;;;24.00;67.65;99049.59;1727103;82;21079;-68
2021/07/30 04:44:46;;;;;;;9.13;8.13;;;;;;;24.00;67.65;99049.59;1726387;82;21035;-68
2021/07/30 04:47:12;;;;;;;10.00;7.80;;;;;;;23.98;67.84;99042.23;1737344;82;21075;-68
2021/07/30 04:49:40;;;;;;;10.78;8.28;;;;;;;24.24;67.66;99045.77;1720950;82;21002;-68
2021/07/30 04:52:07;;;;;;;10.18;8.83;;;;;;;24.24;67.66;99045.77;1633079;87;21114;-67
2021/07/30 04:54:33;;;;;;;10.03;8.18;;;;;;;24.33;67.28;99043.28;1716392;82;21016;-67
2021/07/30 04:57:00;;;;;;;12.65;8.38;;;;;;;24.34;66.46;99047.67;1693874;82;21566;-68
2021/07/30 04:59:26;;;;;;;9.23;7.75;;;;;;;24.38;66.68;99038.17;1730003;82;21043;-68
2021/07/30 05:01:53;;;;;;;8.93;8.00;;;;;;;24.42;67.01;99042.38;1735962;82;21176;-67
2021/07/30 05:04:19;;;;;;;8.43;7.53;;;;;;;24.62;67.21;99042.42;1726369;82;21154;-68
2021/07/30 05:06:46;;;;;;;8.75;7.50;;;;;;;24.69;66.31;99041.11;1721891;82;21089;-68
2021/07/30 05:09:13;;;;;;;10.90;8.20;;;;;;;24.78;66.55;99039.60;1728552;82;21012;-67
2021/07/30 05:11:41;;;;;;;9.88;8.43;;;;;;;24.91;65.89;99044.91;1643790;86;21078;-67
2021/07/30 05:14:07;;;;;;;10.00;8.18;;;;;;;25.09;66.23;99046.67;1722157;82;20995;-68
2021/07/30 05:16:33;;;;;;;9.30;7.85;;;;;;;25.39;65.37;99052.69;1713822;82;21038;-67
2021/07/30 05:19:00;;;;;;;9.15;7.92;;;;;;;25.66;64.64;99050.72;1724682;82;21035;-67
2021/07/30 05:21:27;;;;;;;8.43;7.37;;;;;;;25.91;64.09;99054.24;1712469;82;21550;-67
2021/07/30 05:23:53;;;;;;;12.53;7.78;;;;;;;26.13;63.30;99051.17;1659764;86;21110;-67
2021/07/30 05:26:20;;;;;;;10.93;8.15;;;;;;;26.23;62.31;99058.82;1724644;82;21519;-68
2021/07/30 05:28:47;;;;;;;8.93;7.70;;;;;;;26.41;62.61;99061.67;1703271;82;21028;-68
2021/07/30 05:31:15;;;;;;;8.85;7.90;;;;;;;26.64;61.53;99062.13;1738930;82;21111;-68
2021/07/30 05:33:42;;;;;;;9.30;8.30;;;;;;;26.82;61.30;99063.59;1729290;82;21043;-67
2021/07/30 05:36:10;;;;;;;8.93;7.60;;;;;;;26.85;59.96;99067.61;1650289;86;21070;-67
2021/07/30 05:38:37;;;;;;;8.65;7.70;;;;;;;26.72;60.21;99065.74;1695535;81;21036;-68
2021/07/30 05:42:23;;;;;;;8.63;7.65;;;;;;;26.82;60.81;99073.97;1761925;79;22985;-67
2021/07/30 05:44:50;;;;;;;8.55;7.40;;;;;;;26.80;59.51;99070.16;1752264;82;21034;-68
2021/07/30 05:47:17;;;;;;;11.20;7.50;;;;;;;26.65;59.58;99069.92;1737114;82;21687;-67
2021/07/30 05:49:43;;;;;;;8.13;7.33;;;;;;;26.53;59.83;99069.70;1737991;82;21066;-67
2021/07/30 05:52:10;;;;;;;10.23;7.45;;;;;;;26.54;60.55;99075.47;1737287;82;21058;-68
2021/07/30 05:54:36;;;;;;;9.45;7.75;;;;;;;26.67;60.78;99076.72;1727345;82;21566;-68
2021/07/30 05:57:03;;;;;;;10.00;7.03;;;;;;;26.85;60.50;99070.41;1726559;82;21130;-68
2021/07/30 05:59:29;;;;;;;9.15;6.72;;;;;;;26.88;60.31;99070.41;1736714;82;21077;-68
2021/07/30 06:01:56;;;;;;;10.03;7.10;;;;;;;26.97;60.43;99071.41;1727871;82;21131;-67
2021/07/30 06:04:22;;;;;;;10.53;6.35;;;;;;;27.18;59.16;99068.63;1737453;82;21023;-68
2021/07/30 06:06:49;;;;;;;9.50;6.95;;;;;;;27.17;58.09;99073.41;1726792;82;21106;-68
2021/07/30 06:09:15;;;;;;;8.50;7.42;;;;;;;27.17;57.79;99065.03;1740684;82;21042;-68
2021/07/30 06:11:42;;;;;;;8.65;7.35;;;;;;;27.39;57.63;99063.64;1734991;82;21047;-67
2021/07/30 06:14:09;;;;;;;7.58;6.75;;;;;;;27.41;56.84;99066.84;1707487;83;21006;-67
2021/07/30 06:16:36;;;;;;;7.80;6.78;;;;;;;27.33;57.23;99063.25;1732773;81;21079;-67
2021/07/30 06:19:03;;;;;;;9.25;7.58;;;;;;;27.40;57.06;99062.45;1731083;81;21474;-68
2021/07/30 06:21:32;;;;;;;8.73;6.50;;;;;;;27.48;56.86;99052.30;1729576;82;21540;-68
2021/07/30 06:24:00;;;;;;;7.45;6.00;;;;;;;27.53;56.75;99054.67;1733310;82;20976;-68
2021/07/30 06:26:26;;;;;;;8.30;6.85;;;;;;;27.73;57.10;99059.26;1723089;82;21056;-68
2021/07/30 06:28:53;;;;;;;8.38;6.45;;;;;;;27.84;56.06;99057.23;1723898;82;21003;-70
2021/07/30 06:39:21;;;;;;;;;;;;;;;28.39;53.36;99038.46;1815661;79;22939;-68
2021/07/30 06:41:47;;;;;;;8.48;6.08;;;;;;;28.26;52.88;99040.13;1767166;79;20134;-68
2021/07/30 06:44:14;;;;;;;7.17;6.47;;;;;;;28.14;53.54;99046.38;1759154;80;21074;-68
2021/07/30 06:46:40;;;;;;;8.88;6.47;;;;;;;28.07;53.05;99046.99;1766648;80;21489;-68
2021/07/30 06:49:07;;;;;;;8.70;6.70;;;;;;;28.18;53.63;99042.16;1747180;80;21082;-67
2021/07/30 06:51:34;;;;;;;21.02;10.58;;;;;;;28.39;53.61;99045.46;1769932;79;21066;-68
2021/07/30 07:00:28;;;;;;;11.40;6.35;;;;;;;28.46;51.40;99043.42;1794249;79;23559;-68
2021/07/30 07:02:54;;;;;;;7.10;6.03;;;;;;;28.53;50.95;99041.19;1731839;81;21701;-68
2021/07/30 07:05:21;;;;;;;6.28;5.37;;;;;;;28.62;50.16;99043.75;1743323;82;21046;-70
2021/07/30 07:07:49;;;;;;;6.20;5.60;;;;;;;28.62;52.06;99040.16;1752817;82;21083;-67
2021/07/30 07:10:16;;;;;;;7.75;6.55;;;;;;;28.83;51.28;99037.25;1746356;81;20995;-68
2021/07/30 07:12:43;;;;;;;7.90;5.95;;;;;;;28.90;50.06;99035.80;1715814;82;21136;-69
2021/07/30 07:15:11;;;;;;;10.32;6.67;;;;;;;28.84;49.36;99043.02;1724676;82;21090;-68
2021/07/30 07:17:37;;;;;;;11.35;6.40;;;;;;;28.87;50.00;99038.03;1721112;82;21023;-69
2021/07/30 07:20:06;;;;;;;7.92;6.00;;;;;;;29.07;49.79;99043.88;1739098;82;21070;-67
2021/07/30 07:22:32;;;;;;;7.45;5.40;;;;;;;29.09;49.95;99040.84;1741583;82;21070;-67
2021/07/30 07:24:59;;;;;;;6.87;5.42;;;;;;;29.07;49.95;99047.47;1674798;85;21042;-68
2021/07/30 07:27:25;;;;;;;7.03;5.10;;;;;;;29.20;49.34;99046.36;1688282;85;21070;-67
2021/07/30 07:29:51;;;;;;;17.20;9.30;;;;;;;29.14;47.98;99043.22;1682238;85;21058;-69
2021/07/30 07:32:18;;;;;;;7.08;5.58;;;;;;;29.24;48.59;99050.53;1707230;84;21058;-69
2021/07/30 07:34:44;;;;;;;6.33;4.85;;;;;;;29.45;47.02;99051.18;1692696;84;21078;-66
2021/07/30 07:37:11;;;;;;;6.87;5.00;;;;;;;29.47;48.67;99043.77;1666494;85;21050;-64
2021/07/30 07:39:38;;;;;;;9.10;6.17;;;;;;;29.55;48.04;99053.69;1690177;84;21558;-64
2021/07/30 07:42:04;;;;;;;6.78;5.17;;;;;;;29.55;48.03;99050.28;1682363;84;21052;-64
2021/07/30 07:44:31;;;;;;;17.50;10.95;;;;;;;29.72;47.33;99051.34;1686548;84;21044;-65
2021/07/30 07:46:59;;;;;;;5.35;4.75;;;;;;;29.90;47.09;99054.76;1685898;84;21056;-65
2021/07/30 07:49:26;;;;;;;7.10;4.12;;;;;;;29.97;47.67;99058.89;1711901;83;21546;-65
2021/07/30 07:51:54;;;;;;;6.55;4.60;;;;;;;29.64;47.30;99061.83;1687568;84;21110;-64
2021/07/30 07:54:20;;;;;;;6.62;5.10;;;;;;;29.64;47.24;99061.03;1691300;82;21591;-65
2021/07/30 07:56:47;;;;;;;5.25;4.42;;;;;;;29.83;46.64;99062.45;1706098;84;21090;-65
2021/07/30 07:59:14;;;;;;;8.55;6.25;;;;;;;30.00;45.26;99065.09;1701402;83;21077;-65
2021/07/30 08:01:40;;;;;;;4.70;4.03;;;;;;;29.99;44.82;99063.48;1702080;84;21126;-66
2021/07/30 08:04:08;;;;;;;4.92;4.40;;;;;;;29.87;44.98;99068.83;1695595;84;21070;-66
2021/07/30 08:06:34;;;;;;;6.30;5.00;;;;;;;29.58;45.10;99071.11;1640721;87;21036;-65
2021/07/30 08:09:02;;;;;;;6.03;4.95;;;;;;;29.24;45.81;99072.95;1661308;86;21095;-65
2021/07/30 08:11:28;;;;;;;108.32;58.78;;;;;;;29.01;46.68;99067.34;1664690;86;21676;-66
2021/07/30 08:13:56;;;;;;;17.00;9.13;;;;;;;28.82;48.12;99072.06;1680585;84;21078;-65
2021/07/30 08:16:25;;;;;;;7.95;5.58;;;;;;;28.89;48.95;99065.61;1634140;87;21067;-65
2021/07/30 08:18:53;;;;;;;5.70;4.80;;;;;;;29.12;47.63;99068.66;1654485;86;21458;-64
2021/07/30 08:21:21;;;;;;;5.75;4.15;;;;;;;29.18;46.57;99062.80;1657930;86;21059;-66
2021/07/30 08:23:48;;;;;;;5.10;4.55;;;;;;;29.26;46.53;99072.79;1660966;86;21013;-66
2021/07/30 08:26:14;;;;;;;5.12;4.40;;;;;;;29.32;44.55;99073.13;1657406;86;21090;-67
2021/07/30 08:28:40;;;;;;;4.78;4.08;;;;;;;29.48;43.49;99057.95;1638948;87;21548;-66
2021/07/30 08:31:07;;;;;;;6.97;4.80;;;;;;;29.65;45.55;99067.61;1648176;86;21150;-65
2021/07/30 08:33:35;;;;;;;8.10;4.83;;;;;;;29.78;45.06;99070.70;1681985;84;20975;-66
2021/07/30 08:36:02;;;;;;;6.17;4.95;;;;;;;29.70;44.44;99068.38;1696670;84;21126;-65
2021/07/30 08:38:28;;;;;;;6.25;4.83;;;;;;;29.53;44.28;99070.95;1658879;84;21015;-67
2021/07/30 08:40:55;;;;;;;5.85;4.78;;;;;;;29.39;44.27;99075.27;1676384;84;21049;-66
2021/07/30 08:43:21;;;;;;;5.08;4.55;;;;;;;29.28;46.09;99074.56;1687882;84;21608;-66
2021/07/30 08:45:49;;;;;;;5.70;4.70;;;;;;;29.40;44.96;99070.47;1679037;84;21035;-66
2021/07/30 08:48:16;;;;;;;5.08;4.45;;;;;;;29.49;44.08;99065.97;1680194;84;21058;-66
2021/07/30 08:50:43;;;;;;;5.12;4.17;;;;;;;29.46;45.48;99067.41;1679683;84;21046;-64
2021/07/30 08:53:10;;;;;;;4.97;3.98;;;;;;;29.57;44.74;99068.11;1689424;84;21035;-65
2021/07/30 08:55:36;;;;;;;6.53;5.03;;;;;;;29.49;45.01;99069.38;1628887;87;20983;-66
2021/07/30 08:58:03;;;;;;;4.87;4.00;;;;;;;29.10;44.54;99069.66;1625657;86;21031;-66
2021/07/30 09:00:29;;;;;;;4.42;3.40;;;;;;;28.79;43.78;99073.48;1658768;85;21402;-67
2021/07/30 09:02:56;;;;;;;4.03;3.40;;;;;;;28.79;44.55;99072.88;1695532;84;21095;-66
2021/07/30 09:05:34;;;;;;;4.67;3.90;;;;;;;28.93;42.72;99067.19;1679069;85;21554;-65
2021/07/30 09:08:04;;;;;;;3.37;2.80;;;;;;;29.06;43.10;99071.09;1658390;85;21601;-65
2021/07/30 09:10:40;;;;;;;5.10;3.40;;;;;;;29.31;40.92;99065.92;1682742;85;21043;-65
2021/07/30 09:13:25;;;;;;;4.97;3.33;;;;;;;29.37;39.57;99066.46;1749032;82;20988;-66
2021/07/30 09:16:09;;;;;;;4.70;3.33;;;;;;;29.42;40.30;99070.84;1743266;82;21105;-67
2021/07/30 09:18:41;;;;;;;4.55;3.40;;;;;;;29.63;39.44;99067.84;1740485;82;21055;-66
2021/07/30 09:21:26;;;;;;;3.80;3.40;;;;;;;29.67;40.75;99065.00;1729209;82;21624;-66
2021/07/30 09:23:57;;;;;;;4.22;3.65;;;;;;;29.77;42.12;99070.50;1729521;82;21015;-66
2021/07/30 09:26:35;;;;;;;5.67;3.47;;;;;;;29.83;40.49;99059.02;1737517;82;21687;-66
2021/07/30 09:29:09;;;;;;;4.58;3.80;;;;;;;30.01;39.94;99062.45;1727190;82;20999;-68
2021/07/30 09:31:49;;;;;;;5.53;3.90;;;;;;;30.11;40.01;99053.11;1724422;82;21604;-66
2021/07/30 09:34:27;;;;;;;4.58;3.52;;;;;;;30.22;39.51;99056.42;1749515;82;21031;-65
2021/07/30 09:37:01;;;;;;;4.28;3.15;;;;;;;30.23;40.66;99059.40;1743651;82;21066;-66
2021/07/30 09:39:36;;;;;;;5.35;3.80;;;;;;;30.27;39.64;99055.34;1742210;82;21082;-66
2021/07/30 09:42:09;;;;;;;4.37;3.47;;;;;;;30.19;41.22;99053.02;1730604;82;21058;-67
2021/07/30 09:44:48;;;;;;;4.90;3.22;;;;;;;30.26;38.73;99050.94;1737696;82;21003;-66
2021/07/30 09:47:21;;;;;;;3.60;3.20;;;;;;;30.22;38.43;99048.00;1725656;82;21098;-67
2021/07/30 09:49:56;;;;;;;6.08;3.10;;;;;;;30.32;38.32;99044.26;1723530;83;21042;-66
2021/07/30 09:52:28;;;;;;;3.63;3.27;;;;;;;30.58;39.38;99047.73;1740736;82;21023;-66
2021/07/30 09:55:01;;;;;;;4.62;3.33;;;;;;;30.80;38.72;99055.25;1740722;82;21027;-67
2021/07/30 09:57:33;;;;;;;4.33;3.20;;;;;;;30.82;37.98;99059.86;1733163;82;21034;-66
2021/07/30 10:00:03;;;;;;;3.40;3.10;;;;;;;30.88;36.17;99050.52;1725426;82;21035;-67
2021/07/30 10:02:32;;;;;;;4.85;3.37;;;;;;;30.78;36.67;99047.87;1724201;82;21117;-65
2021/07/30 10:05:00;;;;;;;4.20;2.70;;;;;;;30.66;37.02;99052.65;1716915;82;20988;-67
2021/07/30 10:07:31;;;;;;;4.00;3.00;;;;;;;30.52;37.10;99045.22;1726959;82;21059;-68
2021/07/30 10:12:35;;;;;;;8.35;3.10;;;;;;;30.54;38.17;99039.96;1719466;82;21079;-65
2021/07/30 10:15:05;;;;;;;4.08;3.00;;;;;;;30.75;37.90;99041.06;1709372;84;21087;-66
2021/07/30 10:17:34;;;;;;;3.70;3.30;;;;;;;30.82;37.45;99038.15;1710725;81;21052;-65
2021/07/30 10:20:05;;;;;;;3.37;2.95;;;;;;;30.85;36.72;99037.33;1730965;82;21035;-65
2021/07/30 10:23:08;;;;;;;3.90;3.20;;;;;;;30.90;36.01;99040.24;1691432;82;21830;-66
2021/07/30 10:25:39;;;;;;;4.08;3.37;;;;;;;30.92;37.28;99040.03;1718372;82;21027;-66
2021/07/30 10:28:21;;;;;;;3.55;2.87;;;;;;;30.90;38.90;99035.42;1722857;82;21600;-66
2021/07/30 10:31:06;;;;;;;2.95;2.65;;;;;;;31.02;37.20;99030.66;1703718;82;20991;-66
2021/07/30 10:33:40;;;;;;;3.58;2.42;;;;;;;30.96;35.68;99033.72;1720866;82;21031;-68
2021/07/30 10:36:09;;;;;;;4.03;2.50;;;;;;;30.82;33.88;99031.77;1738918;82;21110;-69
2021/07/30 10:38:36;;;;;;;3.00;2.42;;;;;;;30.69;34.52;99034.94;1705085;82;20999;-68
2021/07/30 10:41:11;;;;;;;3.67;2.77;;;;;;;30.67;36.30;99035.98;1726813;82;21039;-68
2021/07/30 10:44:03;;;;;;;3.65;2.60;;;;;;;30.87;36.22;99029.25;1730383;82;20988;-68
2021/07/30 10:46:30;;;;;;;3.35;2.55;;;;;;;30.99;34.41;99027.91;1733756;82;21051;-68
2021/07/30 10:48:56;;;;;;;4.08;2.40;;;;;;;30.98;35.91;99022.09;1705703;82;21027;-66
2021/07/30 10:51:28;;;;;;;3.22;2.52;;;;;;;31.18;35.35;99026.41;1726526;82;21059;-65
2021/07/30 10:54:04;;;;;;;4.25;3.22;;;;;;;31.25;34.47;99021.44;1722802;82;20964;-67
2021/07/30 10:56:37;;;;;;;3.10;2.65;;;;;;;31.32;35.03;99010.70;1714894;82;21079;-66
2021/07/30 10:59:04;;;;;;;3.22;2.67;;;;;;;31.42;35.75;99013.94;1727770;82;21569;-66
2021/07/30 11:01:40;;;;;;;2.85;2.60;;;;;;;31.54;35.50;99008.50;1739865;81;21106;-66
2021/07/30 11:04:06;;;;;;;3.53;2.87;;;;;;;31.69;34.99;99011.05;1728944;82;21044;-66
2021/07/30 11:06:47;;;;;;;5.37;2.98;;;;;;;31.77;35.18;99005.47;1723514;82;21103;-67
2021/07/30 11:09:17;;;;;;;4.30;2.80;;;;;;;31.85;36.19;99011.16;1733998;82;21015;-66
2021/07/30 11:12:00;;;;;;;4.95;3.10;;;;;;;31.98;35.97;99000.83;1754332;81;21042;-67
2021/07/30 11:14:37;;;;;;;4.30;3.10;;;;;;;32.05;35.17;98997.29;1725618;82;21012;-66
2021/07/30 11:17:08;;;;;;;6.72;3.12;;;;;;;31.74;34.64;98989.45;1718361;82;21067;-68
2021/07/30 11:19:48;;;;;;;4.25;3.05;;;;;;;31.67;35.49;98991.00;1720716;82;21000;-67
2021/07/30 11:22:17;;;;;;;3.67;2.90;;;;;;;31.70;37.08;98982.49;1724616;82;21043;-66
2021/07/30 11:24:47;;;;;;;3.87;2.83;;;;;;;31.70;34.98;98993.74;1697901;83;21051;-66
2021/07/30 11:27:15;;;;;;;4.17;2.90;;;;;;;31.51;33.63;98996.70;1733551;81;21811;-66
2021/07/30 11:29:45;;;;;;;4.65;3.00;;;;;;;31.35;33.21;98989.55;1729547;81;21604;-67
2021/07/30 11:32:14;;;;;;;4.45;2.90;;;;;;;31.34;33.65;98988.56;1739263;81;21059;-67
2021/07/30 11:34:46;;;;;;;5.53;3.20;;;;;;;31.29;35.17;98983.41;1718896;82;21497;-67
2021/07/30 11:37:13;;;;;;;4.25;2.87;;;;;;;31.30;35.54;98984.41;1739714;82;21079;-65
2021/07/30 11:39:46;;;;;;;3.17;2.72;;;;;;;31.25;35.44;98982.07;1734005;81;21021;-66
2021/07/30 11:42:25;;;;;;;3.80;2.80;;;;;;;31.24;35.51;98980.50;1741331;82;21027;-66
2021/07/30 11:44:54;;;;;;;3.98;3.10;;;;;;;31.25;35.70;98977.86;1747361;82;21016;-67
2021/07/30 11:47:21;;;;;;;4.55;2.90;;;;;;;31.28;35.97;98977.63;1742522;82;21047;-68
2021/07/30 11:49:52;;;;;;;3.05;2.62;;;;;;;31.46;35.80;98969.67;1735290;82;21726;-66
2021/07/30 11:52:21;;;;;;;5.65;2.40;;;;;;;31.67;34.60;98973.52;1730538;82;21080;-66
2021/07/30 11:54:49;;;;;;;3.87;2.50;;;;;;;31.68;34.64;98970.06;1721942;82;21490;-65
2021/07/30 11:57:28;;;;;;;5.28;3.02;;;;;;;31.55;33.69;98969.31;1733276;82;21091;-66